createdAt,value
2018-02-13T00:01:11.380Z,23.37
2018-02-13T00:06:14.046Z,24.27
2018-02-13T00:11:17.595Z,27.00
2018-02-13T00:16:20.844Z,29.37
2018-02-13T00:21:23.475Z,38.37
2018-02-13T00:26:26.150Z,31.17
2018-02-13T00:31:28.770Z,28.60
2018-02-13T00:36:31.405Z,21.33
2018-02-13T00:41:34.862Z,29.53
2018-02-13T00:46:37.722Z,30.80
2018-02-13T00:51:40.441Z,24.17
2018-02-13T00:56:43.626Z,31.97
2018-02-13T01:01:47.023Z,36.30
2018-02-13T01:06:50.542Z,32.43
2018-02-13T01:11:53.260Z,33.37
2018-02-13T01:16:56.315Z,31.63
2018-02-13T01:21:59.082Z,33.83
2018-02-13T01:27:02.546Z,34.73
2018-02-13T01:32:05.202Z,35.87
2018-02-13T01:37:08.782Z,31.50
2018-02-13T01:42:11.511Z,32.63
2018-02-13T01:47:15.345Z,30.00
2018-02-13T01:52:17.971Z,34.93
2018-02-13T03:27:53.722Z,40.57
2018-02-13T03:32:57.298Z,41.50
2018-02-13T03:38:01.091Z,35.37
2018-02-13T03:43:04.249Z,34.03
2018-02-13T03:48:06.871Z,31.17
2018-02-13T03:53:10.340Z,38.03
2018-02-13T03:58:13.749Z,42.13
2018-02-13T04:03:16.609Z,39.13
2018-02-13T04:08:19.198Z,38.03
2018-02-13T04:13:22.464Z,34.37
2018-02-13T04:18:25.908Z,35.33
2018-02-13T04:23:28.968Z,38.63
2018-02-13T04:28:31.555Z,37.17
2018-02-13T04:33:35.016Z,30.47
2018-02-13T04:38:38.449Z,31.63
2018-02-13T04:43:41.423Z,32.17
2018-02-13T04:48:44.032Z,35.03
2018-02-13T04:53:47.486Z,31.73
2018-02-13T04:58:50.107Z,32.57
2018-02-13T05:03:53.674Z,32.77
2018-02-13T05:08:57.035Z,31.27
2018-02-13T05:13:59.815Z,35.50
2018-02-13T05:19:02.414Z,42.40
2018-02-13T05:24:05.176Z,31.17
2018-02-13T05:29:07.781Z,30.50
2018-02-13T05:34:11.419Z,32.13
2018-02-13T05:39:14.818Z,34.67
2018-02-13T05:44:17.499Z,34.17
2018-02-13T05:49:20.839Z,34.00
2018-02-13T05:54:24.494Z,30.00
2018-02-13T05:59:28.316Z,31.30
2018-02-13T06:04:31.715Z,32.50
2018-02-13T06:09:35.075Z,33.17
2018-02-13T06:14:37.734Z,25.57
2018-02-13T06:19:43.854Z,27.47
2018-02-13T06:24:47.744Z,31.47
2018-02-13T06:29:51.144Z,28.37
2018-02-13T06:34:57.869Z,25.93
2018-02-13T06:40:00.453Z,31.07
2018-02-13T06:45:04.673Z,33.23
2018-02-13T06:50:07.339Z,27.83
2018-02-13T06:55:10.781Z,25.57
2018-02-13T07:00:13.405Z,27.20
2018-02-13T07:05:17.305Z,31.53
2018-02-13T07:10:20.704Z,27.23
2018-02-13T07:15:23.379Z,28.13
2018-02-13T07:20:25.975Z,28.27
2018-02-13T07:25:29.543Z,25.00
2018-02-13T07:30:32.175Z,26.07
2018-02-13T07:35:34.842Z,25.13
2018-02-13T07:40:37.491Z,29.20
2018-02-13T07:45:40.503Z,28.47
2018-02-13T07:50:43.145Z,24.00
2018-02-13T07:55:45.990Z,31.90
2018-02-13T08:00:48.624Z,25.97
2018-02-13T08:05:52.198Z,27.43
2018-02-13T08:10:54.845Z,24.03
2018-02-13T08:15:57.931Z,28.43
2018-02-13T08:21:00.591Z,26.27
2018-02-13T08:26:04.787Z,21.70
2018-02-13T08:31:07.547Z,23.93
2018-02-13T08:36:10.724Z,23.17
2018-02-13T08:41:13.361Z,29.83
2018-02-13T08:46:16.839Z,24.40
2018-02-13T08:51:19.474Z,27.67
2018-02-13T08:56:22.254Z,25.80
2018-02-13T09:01:25.669Z,25.83
2018-02-13T09:06:29.205Z,27.27
2018-02-13T09:11:32.599Z,25.57
2018-02-13T09:16:35.201Z,21.93
2018-02-13T09:21:37.815Z,25.33
2018-02-13T09:26:42.059Z,47.90
2018-02-13T09:31:44.677Z,22.73
2018-02-13T09:36:48.266Z,24.87
2018-02-13T09:41:51.666Z,20.30
2018-02-13T09:46:55.241Z,20.57
2018-02-13T09:51:57.888Z,22.60
2018-02-13T09:57:01.093Z,21.60
2018-02-13T10:02:03.685Z,21.80
2018-02-13T10:07:06.657Z,25.93
2018-02-13T10:12:09.278Z,21.07
2018-02-13T10:17:12.159Z,20.70
2018-02-13T10:22:14.822Z,18.03
2018-02-13T10:27:18.751Z,19.47
2018-02-13T10:32:22.151Z,15.90
2018-02-13T10:37:24.950Z,18.93
2018-02-13T10:42:27.544Z,18.53
2018-02-13T10:47:30.921Z,19.10
2018-02-13T10:52:33.541Z,19.37
2018-02-13T10:57:36.713Z,16.50
2018-02-13T11:02:39.347Z,16.27
2018-02-13T11:07:42.929Z,12.83
2018-02-13T11:12:45.576Z,15.90
2018-02-13T11:17:49.251Z,15.57
2018-02-13T11:22:51.886Z,20.33
2018-02-13T11:27:55.179Z,31.53
2018-02-13T11:32:57.798Z,15.30
2018-02-13T11:38:00.469Z,17.23
2018-02-13T11:43:03.080Z,19.97
2018-02-13T11:48:06.635Z,16.37
2018-02-13T11:53:09.277Z,17.53
2018-02-13T11:58:12.692Z,17.97
2018-02-13T12:03:16.107Z,13.43
2018-02-13T12:08:19.749Z,15.33
2018-02-13T12:13:22.361Z,18.57
2018-02-13T12:18:25.844Z,16.60
2018-02-13T12:23:29.241Z,19.40
2018-02-13T12:28:34.194Z,14.97
2018-02-13T12:33:36.798Z,14.27
2018-02-13T12:38:41.370Z,14.97
2018-02-13T12:43:43.998Z,16.17
2018-02-13T12:48:48.714Z,14.13
2018-02-13T12:53:51.359Z,15.47
2018-02-13T12:58:54.442Z,13.30
2018-02-13T13:04:13.760Z,17.17
2018-02-13T13:09:16.989Z,14.40
2018-02-13T13:14:19.586Z,16.03
2018-02-13T13:19:22.961Z,12.53
2018-02-13T13:24:25.587Z,11.87
2018-02-13T13:29:28.398Z,13.50
2018-02-13T13:34:31.048Z,11.13
2018-02-13T13:39:34.534Z,13.00
2018-02-13T13:44:37.936Z,12.23
2018-02-13T13:49:40.751Z,13.77
2018-02-13T13:54:43.369Z,14.23
2018-02-13T13:59:46.887Z,9.60
2018-02-13T14:04:50.274Z,12.60
2018-02-13T14:09:53.735Z,11.60
2018-02-13T14:14:57.256Z,13.07
2018-02-13T14:20:00.736Z,11.83
2018-02-13T14:25:03.338Z,8.67
2018-02-13T14:30:06.573Z,11.23
2018-02-13T14:35:09.963Z,11.33
2018-02-13T14:40:12.977Z,9.23
2018-02-13T14:45:15.596Z,9.73
2018-02-13T14:50:19.530Z,5.13
2018-02-13T14:55:22.160Z,8.17
2018-02-13T15:00:25.524Z,9.77
2018-02-13T15:05:28.134Z,8.93
2018-02-13T15:10:32.486Z,10.07
2018-02-13T15:15:35.117Z,12.17
2018-02-13T15:20:38.386Z,6.93
2018-02-13T15:25:41.779Z,8.77
2018-02-13T15:30:44.554Z,8.73
2018-02-13T15:35:47.190Z,8.97
2018-02-13T15:40:51.202Z,12.10
2018-02-13T15:45:54.596Z,7.70
2018-02-13T15:50:57.279Z,9.10
2018-02-13T15:55:59.900Z,9.10
2018-02-13T16:01:03.151Z,10.97
2018-02-13T16:06:06.504Z,15.23
2018-02-13T16:11:09.493Z,13.70
2018-02-13T16:16:12.126Z,13.40
2018-02-13T16:21:15.612Z,23.60
2018-02-13T16:26:18.209Z,19.33
2018-02-13T16:31:21.710Z,17.53
2018-02-13T16:36:25.113Z,20.90
2018-02-13T16:41:27.832Z,26.30
2018-02-13T16:46:31.255Z,34.83
2018-02-13T16:51:35.318Z,25.47
2018-02-13T16:56:37.950Z,27.70
2018-02-13T17:01:41.044Z,27.03
2018-02-13T17:06:43.883Z,27.47
2018-02-13T17:11:48.339Z,26.20
2018-02-13T17:16:51.093Z,19.23
2018-02-13T17:21:53.963Z,18.97
2018-02-13T17:26:56.589Z,53.40
2018-02-13T17:32:00.069Z,28.43
2018-02-13T17:37:02.968Z,28.40
2018-02-13T17:42:06.085Z,23.70
2018-02-13T17:47:08.706Z,24.13
2018-02-13T17:52:11.689Z,24.83
2018-02-13T17:57:14.799Z,24.93
2018-02-13T18:02:17.605Z,25.47
2018-02-13T18:07:20.608Z,29.30
2018-02-13T18:12:23.348Z,27.70
2018-02-13T18:17:26.547Z,24.47
2018-02-13T18:22:29.862Z,25.93
2018-02-13T18:27:32.972Z,24.07
2018-02-13T18:32:36.473Z,21.77
2018-02-13T18:37:39.121Z,20.63
2018-02-13T18:42:42.994Z,22.07
2018-02-13T18:47:45.795Z,20.93
2018-02-13T18:57:52.198Z,17.80
2018-02-13T19:02:56.283Z,21.37
2018-02-13T19:07:58.919Z,20.73
2018-02-13T19:13:02.233Z,23.33
2018-02-13T19:18:04.995Z,27.83
2018-02-13T19:23:08.672Z,21.07
2018-02-13T19:28:12.208Z,26.03
2018-02-13T19:33:15.726Z,25.10
2018-02-13T19:38:18.504Z,21.30
2018-02-13T19:43:21.230Z,24.00
2018-02-13T19:48:23.875Z,27.90
2018-02-13T19:53:26.637Z,25.00
2018-02-13T19:58:29.636Z,24.20
2018-02-13T20:03:32.594Z,22.33
2018-02-13T20:08:35.259Z,25.70
2018-02-13T20:13:44.819Z,28.53
2018-02-13T20:18:47.500Z,29.07
2018-02-13T20:23:50.909Z,28.50
2018-02-13T20:28:54.324Z,31.07
2018-02-13T20:33:58.151Z,26.03
2018-02-13T20:39:01.568Z,32.10
2018-02-13T20:44:05.498Z,30.57
2018-02-13T20:49:08.934Z,26.27
2018-02-13T20:54:11.995Z,29.97
2018-02-13T20:59:14.642Z,24.67
2018-02-13T21:04:17.543Z,25.43
2018-02-13T21:09:20.958Z,26.47
2018-02-13T21:14:24.698Z,27.93
2018-02-13T21:19:27.371Z,27.53
2018-02-13T21:24:31.701Z,29.97
2018-02-13T21:29:34.373Z,31.80
2018-02-13T21:34:37.947Z,34.93
2018-02-13T21:39:40.600Z,35.43
2018-02-13T21:44:44.302Z,31.87
2018-02-13T21:49:47.094Z,30.93
2018-02-13T21:54:49.901Z,30.40
2018-02-13T21:59:52.528Z,30.77
2018-02-13T22:04:55.785Z,34.67
2018-02-13T22:09:59.082Z,31.63
2018-02-13T22:15:03.534Z,32.87
2018-02-13T22:20:06.343Z,31.93
2018-02-13T22:25:09.706Z,36.43
2018-02-13T22:30:12.512Z,32.43
2018-02-13T22:35:15.555Z,34.13
2018-02-13T22:40:18.961Z,35.97
2018-02-13T22:45:22.623Z,38.30
2018-02-13T22:50:25.344Z,39.80
2018-02-13T22:55:28.577Z,38.93
2018-02-13T23:00:31.236Z,38.83
2018-02-13T23:05:34.740Z,39.43
2018-02-13T23:10:38.261Z,38.50
2018-02-13T23:15:41.879Z,36.83
2018-02-13T23:20:44.530Z,34.23
2018-02-13T23:25:48.113Z,33.17
2018-02-13T23:30:51.625Z,35.57
2018-02-13T23:35:55.137Z,35.27
2018-02-13T23:40:57.790Z,33.57
2018-02-13T23:46:00.839Z,34.40
2018-02-13T23:51:04.413Z,33.00
2018-02-13T23:56:07.889Z,29.13
